Time;durP1;ratioP1;P1;durP2;ratioP2;P2;SDS_P1;SDS_P2;PMS_P1;PMS_P2;Temp;Humidity;BMP_temperature;BMP_pressure;BME280_temperature;BME280_humidity;BME280_pressure;Samples;Min_cycle;Max_cycle;Signal;HPM_P1;HPM_P2
2024/04/11 08:01:08;;;;;;;;;;;;;;;7.66;100.00;101306.13;5316050;26;20337;-83
2024/04/11 08:03:34;;;;;;;;;;;;;;;7.73;100.00;101305.16;5327809;26;19930;-85
2024/04/11 08:05:59;;;;;;;;;;;;;;;7.72;100.00;101310.47;5328102;26;19934;-86
2024/04/11 08:08:25;;;;;;;;;;;;;;;7.75;100.00;101332.41;5327726;26;20429;-86
2024/04/11 08:11:02;;;;;;;;;;;;;;;7.78;100.00;101327.13;5325601;26;19935;-89
2024/04/11 08:13:28;;;;;;;;;;;;;;;7.78;100.00;101324.47;5323871;26;19934;-87
2024/04/11 08:15:55;;;;;;;;;;;;;;;7.80;100.00;101316.56;5326853;26;20221;-87
2024/04/11 08:18:21;;;;;;;;;;;;;;;7.73;100.00;101321.00;5327879;26;19938;-77
2024/04/11 08:20:46;;;;;;;;;;;;;;;7.81;100.00;101327.09;5328776;26;19930;-84
2024/04/11 08:23:12;;;;;;;;;;;;;;;7.81;100.00;101327.09;5328025;26;19942;-89
2024/04/11 08:25:37;;;;;;;;;;;;;;;7.82;100.00;101333.28;5327488;26;19941;-86
2024/04/11 08:28:02;;;;;;;;;;;;;;;7.78;100.00;101332.41;5325758;26;20005;-86
2024/04/11 08:30:27;;;;;;;;;;;;;;;7.77;100.00;101335.03;5327373;26;20000;-87
2024/04/11 08:32:54;;;;;;;;;;;;;;;7.85;100.00;101333.25;5330749;26;19937;-86
2024/04/11 08:38:22;;;;;;;;;;;;;;;7.95;100.00;101347.25;5501941;21;19950;-85
2024/04/11 08:40:49;;;;;;;;;;;;;;;7.87;100.00;101346.44;5314812;26;19938;-87
2024/04/11 08:43:16;;;;;;;;;;;;;;;7.86;100.00;101355.22;5344334;26;20361;-87
2024/04/11 08:45:42;;;;;;;;;;;;;;;7.76;100.00;101339.47;5344893;26;19937;-87
2024/04/11 08:48:07;;;;;;;;;;;;;;;7.84;100.00;101344.69;5342760;26;19966;-86
2024/04/11 08:50:34;;;;;;;;;;;;;;;7.88;100.00;101348.19;5343289;26;19930;-86
2024/04/11 08:52:59;;;;;;;;;;;;;;;7.77;100.00;101341.22;5343403;26;19958;-86
2024/04/11 08:55:25;;;;;;;;;;;;;;;7.85;100.00;101345.56;5344791;26;19937;-87
2024/04/11 08:57:50;;;;;;;;;;;;;;;7.94;100.00;101342.84;5344763;26;20373;-86
2024/04/11 09:00:21;;;;;;;;;;;;;;;7.88;100.00;101343.78;5344512;26;20001;-87
2024/04/11 09:02:47;;;;;;;;;;;;;;;7.89;100.00;101337.59;5344267;26;19941;-83
2024/04/11 09:05:14;;;;;;;;;;;;;;;7.96;100.00;101338.44;5344584;26;19930;-85
2024/04/11 09:07:39;;;;;;;;;;;;;;;7.99;100.00;101336.69;5341727;26;20365;-86
2024/04/11 09:10:06;;;;;;;;;;;;;;;7.91;100.00;101343.75;5344505;26;19937;-85
2024/04/11 09:12:31;;;;;;;;;;;;;;;7.95;100.00;101344.63;5345025;26;20003;-85
2024/04/11 09:14:56;;;;;;;;;;;;;;;7.97;100.00;101343.69;5344803;26;20443;-86
2024/04/11 09:17:22;;;;;;;;;;;;;;;7.81;100.00;101342.06;5348079;26;20266;-88
2024/04/11 09:19:49;;;;;;;;;;;;;;;7.84;100.00;101338.53;5347807;26;19980;-86
2024/04/11 09:22:14;;;;;;;;;;;;;;;8.09;100.00;101341.84;5346307;26;19957;-87
2024/04/11 09:24:43;;;;;;;;;;;;;;;7.95;100.00;101340.22;5349502;26;20377;-86
2024/04/11 09:27:08;;;;;;;;;;;;;;;7.94;100.00;101338.44;5348291;26;19938;-86
2024/04/11 09:29:35;;;;;;;;;;;;;;;8.05;100.00;101335.72;5347870;26;19937;-86
2024/04/11 09:32:03;;;;;;;;;;;;;;;8.08;100.00;101335.72;5315648;26;20443;-87
2024/04/11 09:34:31;;;;;;;;;;;;;;;7.99;100.00;101330.50;5349789;26;19930;-84
2024/04/11 09:37:03;;;;;;;;;;;;;;;8.16;100.00;101344.44;5346906;26;19937;-85
2024/04/11 09:39:45;;;;;;;;;;;;;;;8.19;100.00;101348.84;5348925;26;19930;-82
2024/04/11 09:42:25;;;;;;;;;;;;;;;8.03;100.00;101337.50;5349626;26;19934;-83
2024/04/11 09:44:52;;;;;;;;;;;;;;;7.96;100.00;101351.63;5349333;26;20376;-84
2024/04/11 09:47:19;;;;;;;;;;;;;;;8.21;100.00;101351.47;5347512;26;19938;-82
2024/04/11 09:49:59;;;;;;;;;;;;;;;8.24;100.00;101347.03;5347720;26;19934;-78
2024/04/11 09:52:27;;;;;;;;;;;;;;;8.18;100.00;101342.69;5345441;26;19930;-82
2024/04/11 09:54:53;;;;;;;;;;;;;;;8.26;100.00;101349.66;5346287;26;19942;-79
2024/04/11 09:57:21;;;;;;;;;;;;;;;8.32;100.00;101346.97;5347673;26;19937;-83
2024/04/11 09:59:46;;;;;;;;;;;;;;;8.19;100.00;101347.06;5349391;26;19930;-78
2024/04/11 10:02:13;;;;;;;;;;;;;;;8.15;100.00;101350.63;5347193;26;19988;-83
2024/04/11 10:04:42;;;;;;;;;;;;;;;8.24;100.00;101346.16;5346956;26;19930;-82
2024/04/11 10:07:08;;;;;;;;;;;;;;;8.21;100.00;101356.75;5345448;26;19936;-82
2024/04/11 10:09:34;;;;;;;;;;;;;;;8.30;100.00;101352.25;5345828;26;19930;-83
2024/04/11 10:12:11;;;;;;;;;;;;;;;8.12;100.00;101353.28;5347034;26;20365;-80
2024/04/11 10:14:39;;;;;;;;;;;;;;;8.06;100.00;101361.25;5346097;26;19945;-79
2024/04/11 10:17:05;;;;;;;;;;;;;;;8.02;100.00;101353.38;5347133;26;19930;-80
2024/04/11 10:19:31;;;;;;;;;;;;;;;7.97;100.00;101356.91;5346903;26;19934;-80
2024/04/11 10:22:06;;;;;;;;;;;;;;;7.93;100.00;101354.28;5345513;26;20008;-77
2024/04/11 10:24:35;;;;;;;;;;;;;;;8.01;100.00;101355.13;5345046;26;19937;-81
2024/04/11 10:27:10;;;;;;;;;;;;;;;7.94;100.00;101348.13;5346137;26;19930;-80
2024/04/11 10:29:46;;;;;;;;;;;;;;;7.98;100.00;101352.53;5345531;26;19941;-83
2024/04/11 10:32:18;;;;;;;;;;;;;;;8.08;100.00;101351.56;5346614;26;19988;-78
2024/04/11 10:34:56;;;;;;;;;;;;;;;8.17;100.00;101350.63;5346678;26;19938;-78
2024/04/11 10:37:23;;;;;;;;;;;;;;;8.08;100.00;101348.91;5314736;26;19930;-81
2024/04/11 10:39:54;;;;;;;;;;;;;;;8.83;100.00;101359.72;5346791;26;19939;-79
2024/04/11 10:42:20;;;;;;;;;;;;;;;8.77;100.00;101351.84;5345774;26;20004;-80
2024/04/11 10:44:45;;;;;;;;;;;;;;;8.54;100.00;101355.59;5344995;26;20325;-76
2024/04/11 10:47:13;;;;;;;;;;;;;;;8.32;100.00;101354.88;5346643;26;19930;-83
2024/04/11 10:49:41;;;;;;;;;;;;;;;8.14;100.00;101355.91;5345681;26;19957;-83
2024/04/11 10:52:10;;;;;;;;;;;;;;;8.27;100.00;101354.06;5343594;26;19934;-82
2024/04/11 10:54:36;;;;;;;;;;;;;;;8.45;100.00;101351.28;5346332;26;20250;-78
2024/04/11 10:57:02;;;;;;;;;;;;;;;8.24;100.00;101351.44;5346064;26;20269;-82
2024/04/11 10:59:28;;;;;;;;;;;;;;;8.26;100.00;101357.56;5346483;26;19936;-80
2024/04/11 11:02:09;;;;;;;;;;;;;;;8.30;100.00;101352.25;5346053;26;20265;-82
2024/04/11 11:04:37;;;;;;;;;;;;;;;8.32;100.00;101349.59;5345870;26;19958;-80
2024/04/11 11:07:10;;;;;;;;;;;;;;;8.66;100.00;101350.22;5344891;26;19937;-83
2024/04/11 11:09:41;;;;;;;;;;;;;;;8.42;100.00;101351.25;5345770;26;19942;-78
2024/04/11 11:12:06;;;;;;;;;;;;;;;8.22;100.00;101342.63;5346181;26;19931;-83
2024/04/11 11:14:31;;;;;;;;;;;;;;;8.48;100.00;101340.66;5346350;26;19937;-78
2024/04/11 11:17:01;;;;;;;;;;;;;;;8.42;100.00;101340.69;5346212;26;19930;-79
2024/04/11 11:19:30;;;;;;;;;;;;;;;8.14;100.00;101345.38;5345838;26;19930;-82
2024/04/11 11:21:59;;;;;;;;;;;;;;;8.06;100.00;101331.31;5313587;26;19963;-81
2024/04/11 11:24:25;;;;;;;;;;;;;;;8.59;100.00;101331.78;5315563;26;19930;-80
2024/04/11 11:26:55;;;;;;;;;;;;;;;8.62;100.00;101329.13;5345927;26;20261;-79
2024/04/11 11:29:25;;;;;;;;;;;;;;;8.15;100.00;101331.25;5346067;26;20007;-81
2024/04/11 11:31:51;;;;;;;;;;;;;;;8.00;100.00;101327.84;5346093;26;19934;-83
2024/04/11 11:34:16;;;;;;;;;;;;;;;8.49;100.00;101323.94;5345742;26;20016;-82
2024/04/11 11:36:45;;;;;;;;;;;;;;;8.53;100.00;101332.72;5313646;26;19934;-83
2024/04/11 11:39:25;;;;;;;;;;;;;;;8.33;100.00;101319.66;5343195;26;19930;-85
2024/04/11 11:41:55;;;;;;;;;;;;;;;8.11;100.00;101325.13;5344442;26;20331;-82
2024/04/11 11:44:21;;;;;;;;;;;;;;;8.17;100.00;101321.56;5344711;26;20021;-80
2024/04/11 11:46:50;;;;;;;;;;;;;;;8.24;100.00;101325.91;5345585;26;19938;-80
2024/04/11 11:49:18;;;;;;;;;;;;;;;8.39;100.00;101324.88;5345690;26;19934;-78
2024/04/11 11:51:47;;;;;;;;;;;;;;;8.26;100.00;101328.53;5313712;26;19934;-78
2024/04/11 11:54:15;;;;;;;;;;;;;;;8.26;100.00;101313.53;5344424;26;19930;-77
2024/04/11 11:56:41;;;;;;;;;;;;;;;8.61;100.00;101311.50;5345692;26;19930;-80
2024/04/11 11:59:07;;;;;;;;;;;;;;;8.28;100.00;101317.06;5346598;26;19958;-78
2024/04/11 12:01:41;;;;;;;;;;;;;;;8.19;100.00;101302.16;5345537;26;20562;-81
2024/04/11 12:04:07;;;;;;;;;;;;;;;8.34;100.00;101306.47;5345099;26;20367;-79
2024/04/11 12:06:33;;;;;;;;;;;;;;;8.73;100.00;101303.44;5344116;26;20251;-80
2024/04/11 12:09:09;;;;;;;;;;;;;;;8.62;100.00;101290.34;5345360;26;19937;-81
2024/04/11 12:11:35;;;;;;;;;;;;;;;8.57;100.00;101296.56;5344765;26;20380;-81
2024/04/11 12:14:03;;;;;;;;;;;;;;;8.73;100.00;101288.47;5344804;26;19934;-81
2024/04/11 12:16:39;;;;;;;;;;;;;;;8.67;100.00;101292.94;5345228;26;20361;-80
2024/04/11 12:19:04;;;;;;;;;;;;;;;8.89;100.00;101288.28;5344041;26;20626;-79
2024/04/11 12:21:34;;;;;;;;;;;;;;;8.22;100.00;101285.44;5343637;26;19930;-82
2024/04/11 12:23:59;;;;;;;;;;;;;;;8.73;100.00;101275.25;5345176;26;19937;-81
2024/04/11 12:26:29;;;;;;;;;;;;;;;8.57;100.00;101280.69;5345337;26;19945;-78
2024/04/11 12:28:56;;;;;;;;;;;;;;;8.72;100.00;101280.53;5344070;26;20373;-81
2024/04/11 12:31:21;;;;;;;;;;;;;;;8.51;100.00;101277.25;5314594;26;19930;-83
2024/04/11 12:33:47;;;;;;;;;;;;;;;8.26;100.00;101286.28;5345013;26;19934;-82
2024/04/11 12:39:12;;;;;;;;;;;;;;;8.27;100.00;101280.97;5344835;26;20031;-82
2024/04/11 12:41:43;;;;;;;;;;;;;;;8.66;100.00;101273.56;5344926;26;19937;-83
2024/04/11 12:44:11;;;;;;;;;;;;;;;8.60;100.00;101273.63;5344257;26;20004;-81
2024/04/11 12:46:52;;;;;;;;;;;;;;;8.36;100.00;101272.09;5343714;26;20435;-81
2024/04/11 12:49:20;;;;;;;;;;;;;;;8.22;100.00;101273.97;5344422;26;19937;-80
2024/04/11 12:51:45;;;;;;;;;;;;;;;8.37;100.00;101273.84;5344845;26;19934;-82
2024/04/11 12:54:15;;;;;;;;;;;;;;;8.25;100.00;101273.94;5347930;26;19999;-82
2024/04/11 12:56:44;;;;;;;;;;;;;;;8.31;100.00;101274.78;5317411;26;20258;-80
2024/04/11 12:59:23;;;;;;;;;;;;;;;8.19;100.00;101275.75;5347808;26;19930;-84
2024/04/11 13:01:48;;;;;;;;;;;;;;;8.15;100.00;101270.53;5348013;26;19938;-80
2024/04/11 13:04:23;;;;;;;;;;;;;;;8.18;100.00;101270.50;5347666;26;20358;-81
2024/04/11 13:06:48;;;;;;;;;;;;;;;8.16;100.00;101267.88;5345355;26;19934;-83
2024/04/11 13:09:31;;;;;;;;;;;;;;;8.18;100.00;101271.41;5347760;26;19934;-82
2024/04/11 13:11:56;;;;;;;;;;;;;;;8.30;100.00;101267.75;5347789;26;19937;-81
2024/04/11 13:14:27;;;;;;;;;;;;;;;8.27;100.00;101261.63;5347779;26;19930;-84
2024/04/11 13:17:02;;;;;;;;;;;;;;;8.49;100.00;101255.25;5347643;26;19937;-82
2024/04/11 13:19:34;;;;;;;;;;;;;;;8.47;100.00;101254.41;5347793;26;19958;-83
2024/04/11 13:22:10;;;;;;;;;;;;;;;8.47;100.00;101254.41;5345277;26;19938;-82
2024/04/11 13:24:42;;;;;;;;;;;;;;;8.84;100.00;101253.97;5347802;26;19945;-82
2024/04/11 13:27:13;;;;;;;;;;;;;;;8.61;100.00;101245.44;5347565;26;19937;-81
2024/04/11 13:29:39;;;;;;;;;;;;;;;8.76;100.00;101239.97;5317120;26;19981;-83
2024/04/11 13:32:05;;;;;;;;;;;;;;;8.91;100.00;101245.06;5347481;26;19938;-83
2024/04/11 13:34:40;;;;;;;;;;;;;;;8.78;100.00;101238.19;5347615;26;19999;-81
2024/04/11 13:37:13;;;;;;;;;;;;;;;8.33;100.00;101238.66;5345973;26;19937;-82
2024/04/11 13:40:24;;;;;;;;;;;;;;;8.28;100.00;101242.22;5345999;26;19937;-83
2024/04/11 13:42:27;;;;;;;;;;;;;;;8.40;100.00;101235.97;5347358;26;19930;-82
2024/04/11 13:44:53;;;;;;;;;;;;;;;8.27;100.00;101241.38;5347487;26;20289;-80
2024/04/11 13:47:22;;;;;;;;;;;;;;;8.25;100.00;101248.44;5287237;26;19942;-82
2024/04/11 13:49:57;;;;;;;;;;;;;;;8.43;100.00;101242.13;5347446;26;20291;-79
2024/04/11 13:52:26;;;;;;;;;;;;;;;8.39;100.00;101250.91;5344927;26;20070;-77
2024/04/11 13:54:51;;;;;;;;;;;;;;;8.31;100.00;101247.47;5346274;26;19930;-82
2024/04/11 13:57:22;;;;;;;;;;;;;;;8.30;100.00;101251.91;5347230;26;20339;-79
2024/04/11 13:59:57;;;;;;;;;;;;;;;8.75;100.00;101254.09;5347343;26;19938;-76
2024/04/11 14:05:11;;;;;;;;;;;;;;;8.86;100.00;101241.59;5347254;26;20274;-82
2024/04/11 14:07:37;;;;;;;;;;;;;;;8.77;100.00;101243.50;5345565;26;19980;-82
2024/04/11 14:10:04;;;;;;;;;;;;;;;8.99;100.00;101230.88;5316537;26;19937;-84
2024/04/11 14:12:29;;;;;;;;;;;;;;;8.44;100.00;101233.31;5346846;26;19941;-77
2024/04/11 14:14:55;;;;;;;;;;;;;;;8.30;100.00;101222.84;5346925;26;19976;-78
2024/04/11 14:17:22;;;;;;;;;;;;;;;8.42;100.00;101219.19;5346830;26;19937;-83
2024/04/11 14:19:52;;;;;;;;;;;;;;;8.37;100.00;101210.44;5346695;26;19930;-84
2024/04/11 14:24:58;;;;;;;;;;;;;;;8.54;100.00;101208.53;5346907;26;19930;-83
2024/04/11 14:27:29;;;;;;;;;;;;;;;8.60;100.00;101211.97;5347003;26;19947;-84
2024/04/11 14:29:56;;;;;;;;;;;;;;;8.71;100.00;101207.44;5314993;26;19937;-77
2024/04/11 14:32:29;;;;;;;;;;;;;;;8.56;100.00;101205.88;5346522;26;19930;-83
2024/04/11 14:39:53;;;;;;;;;;;;;;;8.90;100.00;101206.31;5346728;26;20000;-84
2024/04/11 14:42:24;;;;;;;;;;;;;;;8.54;100.00;101213.81;5346463;26;19938;-84
2024/04/11 14:44:50;;;;;;;;;;;;;;;8.43;100.00;101209.53;5346615;26;19930;-86
2024/04/11 14:47:18;;;;;;;;;;;;;;;8.34;100.00;101205.19;5346597;26;20335;-84
2024/04/11 14:49:48;;;;;;;;;;;;;;;8.73;100.00;101200.38;5316179;26;20003;-85
2024/04/11 14:52:19;;;;;;;;;;;;;;;8.78;100.00;101201.19;5343186;26;19937;-85
2024/04/11 14:54:46;;;;;;;;;;;;;;;8.58;100.00;101203.19;5346499;26;19937;-84
2024/04/11 14:57:11;;;;;;;;;;;;;;;8.60;100.00;101201.41;5346217;26;20006;-86
2024/04/11 14:59:42;;;;;;;;;;;;;;;8.72;100.00;101194.19;5346489;26;19938;-84
2024/04/11 15:02:10;;;;;;;;;;;;;;;8.77;100.00;101191.50;5345328;26;20357;-82
2024/04/11 15:04:37;;;;;;;;;;;;;;;8.91;100.00;101186.91;5315918;26;19930;-79
2024/04/11 15:07:10;;;;;;;;;;;;;;;8.63;100.00;101193.44;5344694;26;20000;-78
2024/04/11 15:09:43;;;;;;;;;;;;;;;8.59;100.00;101184.69;5344642;26;20373;-77
2024/04/11 15:12:13;;;;;;;;;;;;;;;8.75;100.00;101179.22;5345201;26;20258;-79
2024/04/11 15:14:38;;;;;;;;;;;;;;;8.87;100.00;101179.03;5345331;26;19930;-76
2024/04/11 15:17:18;;;;;;;;;;;;;;;8.82;100.00;101181.75;5345565;26;19930;-80
2024/04/11 15:19:44;;;;;;;;;;;;;;;8.48;100.00;101187.47;5345004;26;20357;-86
2024/04/11 15:22:11;;;;;;;;;;;;;;;8.72;100.00;101175.69;5344116;26;19936;-85
2024/04/11 15:24:42;;;;;;;;;;;;;;;8.70;100.00;101171.34;5344091;26;19930;-79
2024/04/11 15:27:10;;;;;;;;;;;;;;;8.60;100.00;101169.69;5343793;26;20004;-84
2024/04/11 15:29:57;;;;;;;;;;;;;;;8.80;100.00;101170.31;5345776;26;20245;-83
2024/04/11 15:32:23;;;;;;;;;;;;;;;8.79;100.00;101176.53;5345412;26;19930;-84
2024/04/11 15:34:54;;;;;;;;;;;;;;;8.39;100.00;101174.31;5346074;26;19930;-86
2024/04/11 15:37:28;;;;;;;;;;;;;;;8.43;100.00;101178.72;5343119;26;19937;-80
2024/04/11 15:40:00;;;;;;;;;;;;;;;8.41;100.00;101185.75;5315176;26;20000;-86
2024/04/11 15:42:32;;;;;;;;;;;;;;;8.32;100.00;101185.88;5345982;26;20714;-83
2024/04/11 15:45:03;;;;;;;;;;;;;;;8.41;100.00;101180.47;5344933;26;19938;-79
2024/04/11 15:47:33;;;;;;;;;;;;;;;8.91;100.00;101165.75;5344557;26;19941;-77
2024/04/11 15:49:59;;;;;;;;;;;;;;;8.84;100.00;101171.16;5344666;26;19938;-79
2024/04/11 15:52:28;;;;;;;;;;;;;;;9.20;100.00;101169.75;5313599;26;19930;-80
2024/04/11 15:54:56;;;;;;;;;;;;;;;9.00;100.00;101171.81;5345298;26;19999;-82
2024/04/11 15:57:26;;;;;;;;;;;;;;;9.09;100.00;101171.69;5344771;26;19937;-77
2024/04/11 15:59:51;;;;;;;;;;;;;;;8.61;100.00;101179.38;5313250;26;19941;-78
2024/04/11 16:02:18;;;;;;;;;;;;;;;8.68;100.00;101175.75;5344130;26;20044;-80
2024/04/11 16:04:43;;;;;;;;;;;;;;;8.49;100.00;101173.38;5314386;26;19934;-80
2024/04/11 16:07:12;;;;;;;;;;;;;;;8.64;100.00;101172.28;5343175;26;19950;-85
2024/04/11 16:09:46;;;;;;;;;;;;;;;9.02;100.00;101177.97;5314631;26;19930;-80
2024/04/11 16:12:11;;;;;;;;;;;;;;;9.02;100.00;101183.25;5343600;26;20000;-79
2024/04/11 16:14:43;;;;;;;;;;;;;;;9.16;100.00;101183.03;5344818;26;19938;-78
2024/04/11 16:17:13;;;;;;;;;;;;;;;9.08;100.00;101178.75;5344822;26;19930;-77
2024/04/11 16:19:38;;;;;;;;;;;;;;;9.04;100.00;101186.75;5345307;26;19930;-76
2024/04/11 16:22:12;;;;;;;;;;;;;;;9.15;100.00;101179.53;5343941;26;19930;-80
2024/04/11 16:24:49;;;;;;;;;;;;;;;8.97;100.00;101187.75;5344447;26;19938;-78
2024/04/11 16:27:14;;;;;;;;;;;;;;;9.17;100.00;101187.44;5344333;26;19930;-77
2024/04/11 16:29:39;;;;;;;;;;;;;;;8.89;100.00;101188.69;5345229;26;19975;-77
2024/04/11 16:32:08;;;;;;;;;;;;;;;8.92;100.00;101187.78;5344872;26;20373;-77
2024/04/11 16:34:36;;;;;;;;;;;;;;;8.68;100.00;101181.03;5343926;26;19930;-78
2024/04/11 16:37:05;;;;;;;;;;;;;;;8.53;100.00;101184.75;5343478;26;19963;-78
2024/04/11 16:42:14;;;;;;;;;;;;;;;8.90;100.00;101168.41;5344885;26;19930;-83
2024/04/11 16:44:48;;;;;;;;;;;;;;;8.51;100.00;101166.28;5343989;26;19930;-81
2024/04/11 16:47:14;;;;;;;;;;;;;;;8.51;100.00;101173.34;5343513;26;20272;-79
2024/04/11 16:49:42;;;;;;;;;;;;;;;8.47;100.00;101172.53;5313870;26;19934;-80
2024/04/11 16:52:07;;;;;;;;;;;;;;;8.51;100.00;101166.28;5311542;26;19934;-80
2024/04/11 16:55:00;;;;;;;;;;;;;;;8.58;100.00;101161.78;5343636;26;19981;-79
2024/04/11 16:57:25;;;;;;;;;;;;;;;8.71;100.00;101162.50;5343191;26;19942;-78
2024/04/11 16:59:53;;;;;;;;;;;;;;;8.86;100.00;101166.72;5344032;26;20254;-80
2024/04/11 17:02:21;;;;;;;;;;;;;;;8.77;100.00;101162.44;5313227;26;19938;-79
2024/04/11 17:04:48;;;;;;;;;;;;;;;10.56;100.00;101158.53;5343548;26;19999;-85
2024/04/11 17:07:14;;;;;;;;;;;;;;;11.01;100.00;101156.66;5340707;26;19930;-83
2024/04/11 17:09:46;;;;;;;;;;;;;;;9.15;100.00;101162.78;5343902;26;19941;-81
2024/04/11 17:12:17;;;;;;;;;;;;;;;9.13;100.00;101165.47;5344143;26;19930;-78
2024/04/11 17:14:43;;;;;;;;;;;;;;;9.30;100.00;101164.31;5343617;26;20578;-77
2024/04/11 17:17:14;;;;;;;;;;;;;;;8.93;100.00;101172.81;5343843;26;19940;-79
2024/04/11 17:19:42;;;;;;;;;;;;;;;8.89;100.00;101172.84;5313705;26;20388;-80
2024/04/11 17:22:08;;;;;;;;;;;;;;;8.93;100.00;101164.88;5341965;26;19937;-78
2024/04/11 17:24:35;;;;;;;;;;;;;;;8.87;100.00;101168.47;5343207;26;19930;-78
2024/04/11 17:27:06;;;;;;;;;;;;;;;8.59;100.00;101167.97;5343551;26;20010;-80
2024/04/11 17:29:46;;;;;;;;;;;;;;;8.56;100.00;101158.31;5342615;26;19938;-84
2024/04/11 17:32:12;;;;;;;;;;;;;;;8.59;100.00;101160.06;5343660;26;19934;-81
2024/04/11 17:34:47;;;;;;;;;;;;;;;8.53;100.00;101156.56;5313275;26;19937;-77
2024/04/11 17:37:15;;;;;;;;;;;;;;;8.81;100.00;101165.94;5343383;26;20000;-80
2024/04/11 17:39:44;;;;;;;;;;;;;;;8.77;100.00;101156.28;5346967;26;19962;-77
2024/04/11 17:42:13;;;;;;;;;;;;;;;8.91;100.00;101156.97;5316948;26;20269;-80
2024/04/11 17:44:53;;;;;;;;;;;;;;;8.72;100.00;101158.97;5347536;26;19937;-79
2024/04/11 17:47:31;;;;;;;;;;;;;;;8.54;100.00;101162.75;5345915;26;19930;-82
2024/04/11 17:49:58;;;;;;;;;;;;;;;8.82;100.00;101160.63;5345779;26;20360;-81
2024/04/11 17:52:54;;;;;;;;;;;;;;;8.83;100.00;101157.06;5315313;26;19930;-83
2024/04/11 17:55:32;;;;;;;;;;;;;;;8.85;100.00;101163.19;5347008;26;19930;-82
2024/04/11 17:58:08;;;;;;;;;;;;;;;8.66;100.00;101162.59;5347330;26;19930;-78
2024/04/11 18:00:42;;;;;;;;;;;;;;;8.60;100.00;101153.84;5315246;26;19962;-79
2024/04/11 18:03:13;;;;;;;;;;;;;;;8.62;100.00;101157.38;5345933;26;19938;-77
2024/04/11 18:05:39;;;;;;;;;;;;;;;8.60;100.00;101164.41;5316430;26;20000;-77
2024/04/11 18:08:05;;;;;;;;;;;;;;;8.70;100.00;101166.94;5345755;26;19938;-79
2024/04/11 18:10:31;;;;;;;;;;;;;;;8.68;100.00;101175.75;5346752;26;20003;-80
2024/04/11 18:12:59;;;;;;;;;;;;;;;8.83;100.00;101178.22;5345893;26;20413;-77
2024/04/11 18:15:30;;;;;;;;;;;;;;;8.84;100.00;101179.97;5346727;26;19962;-82
2024/04/11 18:17:57;;;;;;;;;;;;;;;8.67;100.00;101179.31;5346920;26;19945;-81
2024/04/11 18:20:27;;;;;;;;;;;;;;;8.60;100.00;101182.91;5316167;26;19930;-79
2024/04/11 18:22:53;;;;;;;;;;;;;;;8.64;100.00;101184.63;5344488;26;20003;-81
2024/04/11 18:25:23;;;;;;;;;;;;;;;8.64;100.00;101182.84;5346614;26;19938;-79
2024/04/11 18:27:50;;;;;;;;;;;;;;;8.62;100.00;101178.50;5347105;26;20344;-80
2024/04/11 18:30:15;;;;;;;;;;;;;;;8.60;100.00;101180.28;5346665;26;19930;-83
2024/04/11 18:32:47;;;;;;;;;;;;;;;8.57;100.00;101185.59;5314482;26;19931;-80
2024/04/11 18:35:16;;;;;;;;;;;;;;;8.56;100.00;101187.38;5313735;26;20362;-80
2024/04/11 18:37:45;;;;;;;;;;;;;;;8.77;100.00;101188.00;5341275;26;20462;-82
2024/04/11 18:40:39;;;;;;;;;;;;;;;8.64;100.00;101189.91;5344811;26;19934;-82
2024/04/11 18:43:20;;;;;;;;;;;;;;;8.59;100.00;101189.97;5344284;26;19942;-82
2024/04/11 18:45:55;;;;;;;;;;;;;;;8.89;100.00;101188.69;5345539;26;19945;-78
2024/04/11 18:48:37;;;;;;;;;;;;;;;8.84;100.00;101187.91;5344318;26;20377;-79
2024/04/11 18:51:03;;;;;;;;;;;;;;;8.82;100.00;101191.44;5345015;26;19941;-82
2024/04/11 18:53:29;;;;;;;;;;;;;;;8.62;100.00;101197.00;5343601;26;19938;-79
2024/04/11 18:55:55;;;;;;;;;;;;;;;8.60;100.00;101191.75;5345392;26;20007;-83
2024/04/11 18:58:23;;;;;;;;;;;;;;;8.69;100.00;101196.00;5344652;26;19930;-83
2024/04/11 19:00:49;;;;;;;;;;;;;;;8.62;100.00;101200.50;5344347;26;19930;-78
2024/04/11 19:03:17;;;;;;;;;;;;;;;8.68;100.00;101210.09;5345201;26;19930;-79
2024/04/11 19:05:43;;;;;;;;;;;;;;;8.69;100.00;101201.31;5315416;26;19941;-85
2024/04/11 19:08:14;;;;;;;;;;;;;;;8.69;100.00;101198.66;5324950;26;20437;-81
2024/04/11 19:10:41;;;;;;;;;;;;;;;8.75;100.00;101203.88;5344924;26;19930;-81
2024/04/11 19:13:10;;;;;;;;;;;;;;;8.69;100.00;101209.22;5328377;26;20385;-77
2024/04/11 19:15:38;;;;;;;;;;;;;;;8.74;100.00;101204.75;5313519;26;20287;-80
2024/04/11 19:18:10;;;;;;;;;;;;;;;8.73;100.00;101210.94;5345086;26;19937;-82
2024/04/11 19:20:36;;;;;;;;;;;;;;;8.66;100.00;101211.91;5343889;26;20297;-84
2024/04/11 19:23:04;;;;;;;;;;;;;;;8.75;100.00;101205.66;5343418;26;19938;-79
2024/04/11 19:25:35;;;;;;;;;;;;;;;8.64;100.00;101216.34;5344050;26;20310;-76
2024/04/11 19:28:10;;;;;;;;;;;;;;;8.76;100.00;101200.34;5344663;26;19938;-79
2024/04/11 19:30:36;;;;;;;;;;;;;;;8.69;100.00;101209.22;5312781;26;20254;-79
2024/04/11 19:33:01;;;;;;;;;;;;;;;8.67;100.00;101206.59;5314185;26;20396;-78
2024/04/11 19:35:30;;;;;;;;;;;;;;;8.76;100.00;101218.84;5343738;26;19930;-80
2024/04/11 19:37:59;;;;;;;;;;;;;;;8.72;100.00;101212.69;5343202;26;19941;-81
2024/04/11 19:40:32;;;;;;;;;;;;;;;8.77;100.00;101219.72;5314122;26;19937;-81
2024/04/11 19:42:59;;;;;;;;;;;;;;;8.90;100.00;101230.13;5343854;26;19930;-81
2024/04/11 19:45:29;;;;;;;;;;;;;;;9.00;100.00;101233.50;5327551;26;19930;-81
2024/04/11 19:47:55;;;;;;;;;;;;;;;9.19;100.00;101234.13;5344764;26;20249;-79
2024/04/11 19:50:20;;;;;;;;;;;;;;;8.88;100.00;101234.53;5344487;26;20019;-83
2024/04/11 19:52:49;;;;;;;;;;;;;;;8.73;100.00;101238.25;5311953;26;20354;-80
2024/04/11 19:55:21;;;;;;;;;;;;;;;8.76;100.00;101237.34;5344324;26;19937;-79
2024/04/11 19:57:50;;;;;;;;;;;;;;;8.68;100.00;101236.53;5342821;26;19930;-81
2024/04/11 20:00:32;;;;;;;;;;;;;;;8.69;100.00;101238.28;5343087;26;19934;-78
2024/04/11 20:02:57;;;;;;;;;;;;;;;8.84;100.00;101234.56;5344072;26;20393;-78
2024/04/11 20:05:25;;;;;;;;;;;;;;;8.70;100.00;101238.28;5344291;26;19940;-80
2024/04/11 20:07:56;;;;;;;;;;;;;;;8.74;100.00;101236.47;5342351;26;19933;-79
2024/04/11 20:10:22;;;;;;;;;;;;;;;8.71;100.00;101239.16;5344068;26;19934;-80
2024/04/11 20:12:53;;;;;;;;;;;;;;;8.69;100.00;101238.28;5313655;26;20000;-83
2024/04/11 20:15:29;;;;;;;;;;;;;;;8.67;100.00;101240.09;5343959;26;20261;-80
2024/04/11 20:17:56;;;;;;;;;;;;;;;8.68;100.00;101236.53;5368558;26;19930;-77
2024/04/11 20:20:30;;;;;;;;;;;;;;;8.71;100.00;101233.84;5343678;26;19930;-85
2024/04/11 20:22:56;;;;;;;;;;;;;;;8.63;100.00;101233.97;5342339;26;19938;-82
2024/04/11 20:25:27;;;;;;;;;;;;;;;8.69;100.00;101240.94;5343878;26;19929;-80
2024/04/11 20:28:07;;;;;;;;;;;;;;;8.66;100.00;101244.50;5343302;26;19930;-80
2024/04/11 20:30:34;;;;;;;;;;;;;;;8.71;100.00;101247.06;5343546;26;20382;-79
2024/04/11 20:32:59;;;;;;;;;;;;;;;8.71;100.00;101247.06;5342218;26;19937;-81
2024/04/11 20:35:25;;;;;;;;;;;;;;;8.78;100.00;101240.84;5343142;26;19966;-77
2024/04/11 20:37:57;;;;;;;;;;;;;;;8.72;100.00;101248.84;5341909;26;20327;-78
2024/04/11 20:40:34;;;;;;;;;;;;;;;8.67;100.00;101258.59;5343091;26;19936;-78
2024/04/11 20:43:18;;;;;;;;;;;;;;;8.72;100.00;101254.13;5343670;26;19993;-82
2024/04/11 20:45:45;;;;;;;;;;;;;;;8.65;100.00;101253.31;5312603;26;19931;-78
2024/04/11 21:34:34;;;;;;;;;;;;;;;8.77;100.00;101249.66;5346311;26;19937;-81
2024/04/11 21:37:02;;;;;;;;;;;;;;;8.75;100.00;101251.44;5344612;26;20028;-83
2024/04/11 21:39:35;;;;;;;;;;;;;;;8.75;100.00;101246.16;5315072;26;20262;-83
2024/04/11 21:42:09;;;;;;;;;;;;;;;8.73;100.00;101247.94;5346706;26;19930;-86
2024/04/11 21:44:36;;;;;;;;;;;;;;;8.75;100.00;101247.94;5344916;26;20008;-81
2024/04/11 21:47:02;;;;;;;;;;;;;;;8.73;100.00;101246.16;5345552;26;19930;-82
2024/04/11 21:49:29;;;;;;;;;;;;;;;8.78;100.00;101248.75;5315913;26;19937;-82
2024/04/11 21:51:55;;;;;;;;;;;;;;;8.78;100.00;101248.75;5344262;26;19937;-84